KICT

Wichita Dwight D Eisenhower National Airport

Wichita, Kansas, USA
METAR KICT 191522Z 16009KT 10SM -RA BKN007 OVC014 22/22 A2981 RMK AO2 CIG 004V012 P0001 T02220222 $
Observed Flight Rules
Aug-19 @ 15:22 UTC (17 minutes ago) Instrument Flight Rules
Wind Visibility Clouds Conditions
160° at 9 knots 10 miles
  • Broken at 700' AGL
  • Overcast at 1,400' AGL
  • Light Rain
Temperatures Readings Precipitation
Current 22°C / 72°F
Dewpoint 22°C / 72°F
Humidity 100%
Altimeter 29.81" Hg
Pressure 1009 hPa
Elevation 407
Current Rain 0.01
METAR KICT 191522Z 16009KT 10SM -RA BKN007 OVC014 22/22 A2981 RMK AO2 CIG 004V012 P0001 T02220222 $
Observed Flight Rules
Aug-19 @ 15:22 UTC
(17 minutes ago)
IFR
Wind Visibility
160° at 9 knots 10 miles
Clouds
  • Broken at 700' AGL
  • Overcast at 1,400' AGL
Conditions
  • Light Rain
Temperature Dewpoint
22°C / 72°F 22°C / 72°F
Humidity Altimeter Pressure
100% 29.81" Hg 1009 hPa
Current Rain
0.01